JRLK1: John Redmond Lake

Data processed at Thu Jan 04 2018 22:58


All information presented herein is the property of the government of the United States of America and may be revised or deleted at any time without prior notice.
Dissemination of this information without the expressed written consent of the Public Affairs Office, Tulsa District U.S. Army Corps of Engineers is strictly prohibited.
These data are gathered electronically and, as presented, have not undergone any form of quality control. These data are not guaranteed to be valid or correct.
Go to home page.
Go to station list.

Upstream stations:

Downstream station:
Previous Day
Next Day
Current Day
    
SHEF ID:       JRLK1     John Redmond Lake
STATION TYPE:  RESERVOIR
Normal Pool:  Bottom =  1026.00, Top =  1039.00

               PRECIP ELEVATION   STORAGE    INFLOW   RELEASE  AIR-TEMP  WIND-DIRWIND-SPEED REL-HUMID SOLAR-RAD   VOLTAGE  BAT-LOAD
                   in        ft     ac-ft       cfs       cfs         F       deg       mph         %      W/m2      volt      volt
              Ccp-Rev   Ccp-Rev   Ccp-Rev  Regi-Rev  Regi-Rev   Ccp-Rev   Ccp-Rev   Ccp-Rev   Ccp-Rev   Ccp-Rev   Ccp-Rev   Ccp-Rev
(US/Central)
01/02 00:00      0.00   1041.56     72596        20        57      7.66     79.10      4.40     53.07      0.00     12.45     12.19
01/02 01:00      0.00   1041.56     72596        20        57      7.65     89.80      4.60     52.97      0.00     12.42     12.16
01/02 02:00      0.00   1041.56     72596        20        57      7.09     85.70      3.50     55.60      0.00     12.39     12.13
01/02 03:00      0.00   1041.57     72690        20        57      6.30     73.30      2.80     61.83      0.00     12.36     12.09
01/02 04:00      0.00   1041.55     72501        20        57      5.77     90.20      3.60     62.20      0.00     12.34     12.07
01/02 05:00      0.00   1041.55     72501       151        57      5.29     95.90      4.80     63.93      0.00     12.32     12.06
01/02 06:00      0.00   1041.55     72501       162        57      4.42    115.50      4.30     67.06      0.00     12.31     12.03
01/02 07:00      0.00   1041.56     72596       174        57      4.28    107.40      3.40     68.94      0.00     12.29     12.02
01/02 08:00      0.00   1041.56     72596       178        57      4.26    153.40      1.30     68.67      3.10     12.29     12.01
01/02 09:00      0.00   1041.56     72596       183        57      5.65    148.70      3.80     60.13    125.50     12.38     12.03
01/02 10:00      0.00   1041.56     72596        57        57      7.68    148.80      5.70     53.44    258.30     12.82     12.26
01/02 11:00      0.00   1041.56     72596        57        57     11.68    159.90      5.60     45.85    456.50     13.54     12.77
01/02 12:00      0.00   1041.56     72596        57        57     13.15    263.10      4.50     43.77    534.10     13.92     12.99
01/02 13:00      0.00   1041.56     72596        57        57     16.00    267.00      4.30     39.70    547.70     13.43     13.05
01/02 14:00      0.00   1041.56     72596        57        57     18.75    243.10      7.60     32.59    513.00     12.88     12.67
01/02 15:00      0.00   1041.56     72596        57        57     20.28    232.20     10.00     29.48    410.70     13.02     12.62
01/02 16:00      0.00   1041.57     72690       286        57     21.06    234.10      9.40     29.41    227.20     12.88     12.59
01/02 17:00      0.00   1041.56     72596       286        57     20.82    219.80      9.60     32.06     72.40     12.72     12.49
01/02 18:00      0.00   1041.57     72690       286        57     17.85    196.30      6.80     37.92      0.00     12.65     12.40
01/02 19:00      0.00   1041.57     72690       286        57     15.57    181.50      5.20     43.59      0.00     12.61     12.35
01/02 20:00      0.00   1041.57     72690       286        57     14.25    179.40      6.10     48.28      0.00     12.58     12.32
01/02 21:00      0.00   1041.57     72690        69        57     14.54    198.00      8.00     48.95      0.00     12.55     12.30
01/02 22:00      0.00   1041.57     72690        58        57     17.08    221.50     14.20     45.08      0.00     12.52     12.26
01/02 23:00      0.00   1041.58     72785        48        57     16.07    217.80     12.40     46.95      0.00     12.49     12.23